Time,TemperatureF,DewpointF,PressureIn,WindDirection,WindDirectionDegrees,WindSpeedMPH,WindSpeedGustMPH,Humidity,HourlyPrecipIn,Conditions,Clouds,dailyrainin,SoftwareType,DateUTC
2013-09-26 00:00:00,85.2,80.5,29.81,ENE,68,10.0,19.0,86,0.00,,,0.00,VWS V14.01,2013-09-26 06:00:00,
2013-09-26 00:30:00,84.9,80.2,29.80,NE,45,9.0,22.0,86,0.00,,,0.00,VWS V14.01,2013-09-26 06:30:00,
2013-09-26 01:00:00,85.0,80.3,29.80,ENE,68,9.0,19.0,86,0.00,,,0.00,VWS V14.01,2013-09-26 07:00:00,
2013-09-26 01:30:00,84.9,80.2,29.79,ENE,68,10.0,19.0,86,0.00,,,0.00,VWS V14.01,2013-09-26 07:30:00,
2013-09-26 02:00:00,84.7,80.1,29.78,ENE,68,8.0,16.0,86,0.00,,,0.00,VWS V14.01,2013-09-26 08:00:00,
2013-09-26 02:30:00,84.7,80.1,29.77,ENE,68,8.0,16.0,86,0.00,,,0.00,VWS V14.01,2013-09-26 08:30:00,
2013-09-26 03:00:00,84.6,79.9,29.78,ENE,68,8.0,15.0,86,0.00,,,0.00,VWS V14.01,2013-09-26 09:00:00,
2013-09-26 03:30:00,84.5,79.8,29.78,ENE,68,7.0,14.0,86,0.00,,,0.00,VWS V14.01,2013-09-26 09:30:00,
2013-09-26 04:00:00,84.6,79.2,29.79,ENE,68,7.0,15.0,84,0.00,,,0.00,VWS V14.01,2013-09-26 10:00:00,
2013-09-26 04:30:00,84.7,79.3,29.80,ENE,68,7.0,13.0,84,0.00,,,0.00,VWS V14.01,2013-09-26 10:30:00,
2013-09-26 05:00:00,84.6,79.2,29.80,ENE,68,7.0,14.0,84,0.00,,,0.00,VWS V14.01,2013-09-26 11:00:00,
2013-09-26 05:30:00,84.6,79.6,29.79,ENE,68,7.0,14.0,85,0.00,,,0.00,VWS V14.01,2013-09-26 11:30:00,
2013-09-26 06:00:00,84.8,79.8,29.81,ENE,68,6.0,12.0,85,0.00,,,0.00,VWS V14.01,2013-09-26 12:00:00,
2013-09-26 06:30:00,85.6,79.8,29.81,ENE,68,5.0,10.0,83,0.00,,,0.00,VWS V14.01,2013-09-26 12:30:00,
2013-09-26 07:00:00,86.1,80.0,29.82,ENE,68,5.0,13.0,82,0.00,,,0.00,VWS V14.01,2013-09-26 13:00:00,
2013-09-26 07:30:00,86.7,79.4,29.83,East,90,5.0,10.0,79,0.00,,,0.00,VWS V14.01,2013-09-26 13:30:00,
2013-09-26 08:00:00,87.7,80.4,29.83,ENE,68,3.0,6.0,79,0.00,,,0.00,VWS V14.01,2013-09-26 14:00:00,
2013-09-26 08:30:00,89.1,80.9,29.84,SSW,202,2.0,3.0,77,0.00,,,0.00,VWS V14.01,2013-09-26 14:30:00,
2013-09-26 09:00:00,91.5,82.0,29.84,SSW,202,1.0,3.0,74,0.00,,,0.00,VWS V14.01,2013-09-26 15:00:00,
2013-09-26 09:30:00,91.3,81.0,29.84,ESE,112,1.0,5.0,72,0.00,,,0.00,VWS V14.01,2013-09-26 15:30:00,
2013-09-26 10:00:00,88.1,79.6,29.84,ENE,68,4.0,8.0,76,0.00,,,0.00,VWS V14.01,2013-09-26 16:00:00,
2013-09-26 10:30:00,89.4,80.0,29.84,ENE,68,3.0,9.0,74,0.00,,,0.00,VWS V14.01,2013-09-26 16:30:00,
2013-09-26 11:00:00,89.1,80.1,29.84,ENE,68,4.0,11.0,75,0.00,,,0.00,VWS V14.01,2013-09-26 17:00:00,
2013-09-26 11:30:00,89.5,79.3,29.83,ENE,68,4.0,11.0,72,0.00,,,0.00,VWS V14.01,2013-09-26 17:30:00,
2013-09-26 12:00:00,89.7,79.1,29.82,ENE,68,5.0,11.0,71,0.00,,,0.00,VWS V14.01,2013-09-26 18:00:00,
2013-09-26 12:30:00,88.7,78.9,29.81,ENE,68,6.0,13.0,73,0.00,,,0.00,VWS V14.01,2013-09-26 18:30:00,
2013-09-26 13:00:00,89.5,79.7,29.80,ENE,68,6.0,12.0,73,0.00,,,0.00,VWS V14.01,2013-09-26 19:00:00,
2013-09-26 13:30:00,89.2,79.8,29.79,ENE,68,7.0,14.0,74,0.00,,,0.00,VWS V14.01,2013-09-26 19:30:00,
2013-09-26 14:00:00,89.5,79.3,29.78,ENE,68,7.0,13.0,72,0.00,,,0.00,VWS V14.01,2013-09-26 20:00:00,
2013-09-26 14:30:00,89.6,77.6,29.77,ENE,68,7.0,14.0,68,0.00,,,0.00,VWS V14.01,2013-09-26 20:30:00,
2013-09-26 15:00:00,89.5,80.1,29.77,NE,45,6.0,15.0,74,0.00,,,0.00,VWS V14.01,2013-09-26 21:00:00,
2013-09-26 15:30:00,88.9,79.9,29.77,ENE,68,6.0,15.0,75,0.00,,,0.00,VWS V14.01,2013-09-26 21:30:00,
2013-09-26 16:00:00,88.7,80.2,29.77,NE,45,6.0,16.0,76,0.00,,,0.00,VWS V14.01,2013-09-26 22:00:00,
2013-09-26 16:30:00,88.1,79.2,29.78,ENE,68,7.0,15.0,75,0.00,,,0.00,VWS V14.01,2013-09-26 22:30:00,
2013-09-26 17:00:00,87.2,78.7,29.79,NE,45,7.0,13.0,76,0.00,,,0.00,VWS V14.01,2013-09-26 23:00:00,
2013-09-26 17:30:00,86.2,78.9,29.81,NE,45,7.0,17.0,79,0.00,,,0.00,VWS V14.01,2013-09-26 23:30:00,
2013-09-26 18:00:00,85.7,79.2,29.82,ENE,68,7.0,15.0,81,0.00,,,0.00,VWS V14.01,2013-09-27 00:00:00,
2013-09-26 18:30:00,85.3,79.2,29.83,NE,45,6.0,19.0,82,0.00,,,0.00,VWS V14.01,2013-09-27 00:30:00,
2013-09-26 19:00:00,85.2,78.7,29.83,NE,45,7.0,17.0,81,0.00,,,0.00,VWS V14.01,2013-09-27 01:00:00,
2013-09-26 19:30:00,85.2,77.9,29.84,NE,45,6.0,14.0,79,0.00,,,0.00,VWS V14.01,2013-09-27 01:30:00,
2013-09-26 20:00:00,85.6,78.0,29.84,NE,45,7.0,17.0,78,0.00,,,0.00,VWS V14.01,2013-09-27 02:00:00,
2013-09-26 20:30:00,85.5,79.0,29.85,ENE,68,9.0,18.0,81,0.00,,,0.00,VWS V14.01,2013-09-27 02:30:00,
2013-09-26 21:00:00,85.3,79.6,29.85,ENE,68,8.0,18.0,83,0.00,,,0.00,VWS V14.01,2013-09-27 03:00:00,
2013-09-26 21:30:00,85.3,79.9,29.86,ENE,68,8.0,17.0,84,0.00,,,0.00,VWS V14.01,2013-09-27 03:30:00,
2013-09-26 22:00:00,85.2,80.2,29.85,ENE,68,8.0,18.0,85,0.00,,,0.00,VWS V14.01,2013-09-27 04:00:00,
2013-09-26 22:30:00,85.2,79.8,29.85,ENE,68,8.0,17.0,84,0.00,,,0.00,VWS V14.01,2013-09-27 04:30:00,
2013-09-26 23:00:00,85.0,79.3,29.84,ENE,68,7.0,14.0,83,0.00,,,0.00,VWS V14.01,2013-09-27 05:00:00,
2013-09-26 23:30:00,85.0,79.3,29.83,ENE,68,6.0,15.0,83,0.00,,,0.00,VWS V14.01,2013-09-27 05:30:00,